Flight Track Log - Related Links

Times and Time Zones

All times are in EDT time to prevent confusion due to time zone crossing. See the SKW5489 flight status page for this flight to view local times or setup timezone preferences in your user account.

Time Position Orientation Groundspeed Altitude Reporting Facility
EDT Latitude Longitude Course Direction KTS MPH feet Rate Location/Type
Fri 07:34:08 PM 41.9167 -87.9500 261° West 202 232 3,700  Level Chicago TRACON
Fri 07:35:02 PM 41.8667 -88.0167 225° Southwest 262 302 5,100 1,918 Climbing Chicago TRACON
Fri 07:35:45 PM 41.8244 -88.0564 215° Southwest 270 311 6,800 2,286 Climbing Chicago Center
Fri 07:36:00 PM 41.9077 -88.5432 261° West  Level FlightAware Approximate
Fri 07:36:47 PM 41.7978 -88.1481 249° West 295 339 9,100  Level Chicago Center
Fri 07:37:00 PM 41.8887 -88.7051 261° West  Level FlightAware Approximate
Fri 07:37:49 PM 41.8019 -88.2550 273° West 292 336 11,400  Level Chicago Center
Fri 07:38:00 PM 41.8700 -88.8671 261° West  Level FlightAware Approximate
Fri 07:38:51 PM 41.8050 -88.3664 272° West 301 346 13,300  Level Chicago Center
Fri 07:39:00 PM 41.8513 -89.0291 261° West  Level FlightAware Approximate
Fri 07:39:53 PM 41.8003 -88.5128 268° West 333 383 15,400  Level Chicago Center
Fri 07:40:55 PM 41.7922 -88.6386 265° West 339 390 17,000 1,258 Climbing Chicago Center
Fri 07:41:57 PM 41.7822 -88.7694 264° West 351 404 18,000 1,403 Climbing Chicago Center
Fri 07:42:59 PM 41.7703 -88.9022 263° West 360 414 19,900 1,742 Climbing Chicago Center
Fri 07:44:01 PM 41.7592 -89.0672 265° West 372 428 21,600 1,536 Climbing Chicago Center
Fri 07:45:04 PM 41.7461 -89.2050 263° West 378 435 23,100 1,248 Climbing Chicago Center
Fri 07:46:06 PM 41.7358 -89.3456 264° West 380 437 24,200 1,016 Climbing Chicago Center
Fri 07:47:08 PM 41.7250 -89.4892 264° West 388 447 25,200 1,016 Climbing Chicago Center
Fri 07:48:10 PM 41.7050 -89.6453 260° West 406 467 26,300 1,113 Climbing Chicago Center
Fri 07:49:12 PM 41.6800 -89.7953 257° West 414 476 27,500 1,210 Climbing Chicago Center
Fri 07:50:14 PM 41.6517 -89.9792 258° West 421 484 28,800 1,065 Climbing Chicago Center
Fri 07:51:16 PM 41.6272 -90.1328 258° West 425 489 29,700 871 Climbing Chicago Center
Fri 07:52:18 PM 41.6017 -90.2881 258° West 428 493 30,600 823 Climbing Chicago Center
Fri 07:53:20 PM 41.5753 -90.4478 258° West 437 503 31,400 774 Climbing Chicago Center
Fri 07:54:22 PM 41.5486 -90.6083 258° West 443 510 32,200 768 Climbing Chicago Center
Fri 07:55:25 PM 41.5206 -90.7703 257° West 446 513 33,000 672 Climbing Chicago Center
Fri 07:56:27 PM 41.4878 -90.9656 257° West 450 518 33,600 435 Climbing Chicago Center
Fri 07:57:29 PM 41.4586 -91.1342 257° West 462 532 33,900 532 Climbing Chicago Center
Fri 07:58:31 PM 41.4300 -91.3058 258° West 472 543 34,700 871 Climbing Chicago Center
Fri 07:59:33 PM 41.4008 -91.4669 256° West 469 540 35,700 968 Climbing Chicago Center
Fri 08:00:35 PM 41.3667 -91.6639 257° West 460 529 36,700 726 Climbing Chicago Center
Fri 08:01:37 PM 41.3383 -91.8253 257° West 452 520 37,200 480 Climbing Chicago Center
Fri 08:02:40 PM 41.3092 -91.9875 257° West 454 522 37,700 387 Climbing Chicago Center
Fri 08:03:41 PM 41.2806 -92.1514 257° West 456 525 38,000 146 Climbing Chicago Center
Fri 08:04:43 PM 41.2506 -92.3136 256° West 457 526 38,000  Level Chicago Center
Fri 08:05:45 PM 41.2150 -92.5097 257° West 469 540 38,000  Level Chicago Center
Fri 08:06:47 PM 41.1839 -92.6772 256° West 474 545 38,000  Level Chicago Center
Fri 08:07:50 PM 41.1528 -92.8431 256° West 470 541 38,000  Level Chicago Center
Fri 08:08:34 PM 41.1278 -92.9769 256° West 470 541 38,000  Level Minneapolis Center
Fri 08:09:36 PM 41.0961 -93.1425 256° West 469 540 38,000  Level Minneapolis Center
Fri 08:10:38 PM 41.0653 -93.3044 256° West 461 531 38,000  Level Minneapolis Center
Fri 08:11:40 PM 41.0269 -93.5033 256° West 468 539 38,000  Level Minneapolis Center
Fri 08:12:42 PM 40.9950 -93.6706 256° West 470 541 38,000  Level Minneapolis Center
Fri 08:13:44 PM 40.9594 -93.8403 255° West 477 549 38,000  Level Minneapolis Center
Fri 08:14:46 PM 40.9256 -94.0053 255° West 477 549 38,000  Level Minneapolis Center
Fri 08:15:48 PM 40.8947 -94.1658 256° West 467 537 38,000  Level Minneapolis Center
Fri 08:16:50 PM 40.8567 -94.3622 256° West 467 537 38,000  Level Minneapolis Center
Fri 08:17:52 PM 40.8222 -94.5256 254° West 468 539 38,000  Level Minneapolis Center
Fri 08:18:55 PM 40.7842 -94.6978 254° West 467 537 38,000  Level Minneapolis Center
Fri 08:19:57 PM 40.7497 -94.8600 254° West 462 532 38,000  Level Minneapolis Center
Fri 08:20:59 PM 40.7167 -95.0228 255° West 460 529 38,000  Level Minneapolis Center
Fri 08:22:01 PM 40.6836 -95.1853 255° West 458 527 38,000  Level Minneapolis Center
Fri 08:23:03 PM 40.6492 -95.3478 254° West 459 528 38,000  Level Minneapolis Center
Fri 08:24:05 PM 40.6072 -95.5433 254° West 461 531 38,000  Level Minneapolis Center
Fri 08:25:07 PM 40.5719 -95.7078 254° West 462 532 38,000  Level Minneapolis Center
Fri 08:26:09 PM 40.5369 -95.8703 254° West 461 531 38,000  Level Minneapolis Center
Fri 08:27:11 PM 40.5017 -96.0328 254° West 461 531 38,000  Level Minneapolis Center
Fri 08:28:13 PM 40.4667 -96.1953 254° West 461 531 38,000  Level Minneapolis Center
Fri 08:29:15 PM 40.4583 -96.3633 266° West 460 529 38,000  Level Minneapolis Center
Fri 08:30:17 PM 40.4500 -96.5300 266° West 458 527 38,000  Level Minneapolis Center
Fri 08:31:19 PM 40.4400 -96.7300 266° West 457 526 38,000  Level Minneapolis Center
Fri 08:32:21 PM 40.4333 -96.8639 266° West 457 526 38,000  Level Minneapolis Center
Fri 08:33:23 PM 40.4211 -97.0644 265° West 458 527 38,000  Level Minneapolis Center
Fri 08:34:25 PM 40.4125 -97.2303 266° West 457 526 38,000  Level Minneapolis Center
Fri 08:35:27 PM 40.4022 -97.3936 265° West 457 526 38,000  Level Minneapolis Center
Fri 08:36:29 PM 40.3928 -97.5606 266° West 458 527 38,000  Level Minneapolis Center
Fri 08:37:32 PM 40.3808 -97.7597 266° West 457 526 38,000  Level Minneapolis Center
Fri 08:38:34 PM 40.3700 -97.9267 265° West 458 527 38,000  Level Minneapolis Center
Fri 08:40:38 PM 40.3475 -98.2608 265° West 459 528 38,000  Level Minneapolis Center
Fri 08:41:40 PM 40.3361 -98.4261 265° West 457 526 38,000  Level Minneapolis Center
Fri 08:42:42 PM 40.3244 -98.5942 265° West 458 527 38,000  Level Minneapolis Center
Fri 08:43:44 PM 40.3128 -98.7608 265° West 459 528 38,000  Level Minneapolis Center
Fri 08:44:46 PM 40.2989 -98.9603 265° West 458 527 38,000  Level Minneapolis Center
Fri 08:45:48 PM 40.2867 -99.1250 264° West 455 524 38,000  Level Minneapolis Center
Fri 08:46:50 PM 40.2739 -99.2903 264° West 454 522 38,000  Level Minneapolis Center
Fri 08:47:20 PM 40.2719 -99.3231 266° West 455 524 38,000  Level Denver Center
Fri 08:48:34 PM 40.2567 -99.5219 264° West 455 524 38,000  Level Denver Center
Fri 08:49:36 PM 40.2381 -99.7558 264° West 460 529 38,000  Level Denver Center
Fri 08:50:38 PM 40.2244 -99.9194 264° West 457 526 38,000  Level Denver Center
Fri 08:51:39 PM 40.2114 -100.0786 264° West 458 527 38,000  Level Denver Center
Fri 08:52:41 PM 40.1956 -100.2625 264° West 455 524 38,000  Level Denver Center
Fri 08:53:43 PM 40.1819 -100.4217 264° West 458 527 38,000  Level Denver Center
Fri 08:54:45 PM 40.1686 -100.5786 264° West 454 522 38,000  Level Denver Center
Fri 08:55:46 PM 40.1519 -100.7625 263° West 454 522 38,000  Level Denver Center
Fri 08:56:48 PM 40.1386 -100.9192 264° West 452 520 38,000  Level Denver Center
Fri 08:58:02 PM 40.1219 -101.1011 263° West 450 518 38,000  Level Denver Center
Fri 08:59:04 PM 40.1056 -101.2825 263° West 450 518 38,000  Level Denver Center
Fri 09:00:05 PM 40.0928 -101.4111 263° West 449 517 38,000  Level Denver Center
Fri 09:01:20 PM 40.0703 -101.6439 263° West 450 518 38,000  Level Denver Center
Fri 09:02:21 PM 40.0306 -101.8175 253° West 447 514 38,000  Level Denver Center
Fri 09:03:23 PM 39.9972 -101.9675 254° West 450 518 38,000  Level Denver Center
Fri 09:04:25 PM 39.9567 -102.1400 253° West 447 514 38,000  Level Denver Center
Fri 09:05:27 PM 39.9228 -102.2878 253° West 445 512 38,000  Level Denver Center
Fri 09:06:28 PM 39.8817 -102.4617 253° West 450 518 38,000  Level Denver Center
Fri 09:07:30 PM 39.8528 -102.5850 253° West 448 516 38,000  Level Denver Center
Fri 09:08:32 PM 39.8111 -102.7633 253° West 451 519 38,000  Level Denver Center
Fri 09:09:34 PM 39.7767 -102.9200 254° West 452 520 38,000  Level Denver Center
Fri 09:10:36 PM 39.7425 -103.0781 254° West 455 524 38,000  Level Denver Center
Fri 09:11:37 PM 39.6992 -103.2633 253° West 449 517 38,000  Level Denver Center
Fri 09:12:39 PM 39.6617 -103.4169 252° West 448 516 38,000  Level Denver Center
Fri 09:13:52 PM 39.6267 -103.5717 254° West 447 514 38,000  Level Denver Center
Fri 09:14:55 PM 39.5900 -103.7567 256° West 444 511 38,000  Level Denver Center
Fri 09:15:56 PM 39.5631 -103.9131 257° West 443 510 38,000  Level Denver Center
Fri 09:16:58 PM 39.5431 -104.0708 261° West 445 512 38,000  Level Denver Center
Fri 09:18:00 PM 39.5375 -104.2300 267° West 444 511 38,000  Level Denver Center
Fri 09:19:01 PM 39.5192 -104.3872 261° West 444 511 38,000 44 Level Denver Center
Fri 09:20:15 PM 39.5042 -104.5769 264° West 443 510 38,100 -882 Climbing Denver Center
Fri 09:21:17 PM 39.4869 -104.7725 264° West 433 498 36,000 -2,371 Descending Denver Center
Fri 09:22:19 PM 39.4847 -104.9294 269° West 432 497 33,200 -2,683 Descending Denver Center
Fri 09:23:20 PM 39.4828 -105.0881 269° West 437 503 30,500 -2,634 Descending Denver Center
Fri 09:24:22 PM 39.4800 -105.2514 269° West 452 520 27,800 -2,371 Descending Denver Center
Fri 09:25:24 PM 39.4769 -105.4061 269° West 432 497 25,600 -1,805 Descending Denver Center
Fri 09:26:25 PM 39.4731 -105.5642 268° West 421 484 24,100 -756 Descending Denver Center
Fri 09:27:39 PM 39.4703 -105.7056 269° West 392 451 23,900 -689 Descending Denver Center
Fri 09:28:53 PM 39.4803 -105.8864 274° West 370 426 22,400 -1,235 Descending Denver Center
Fri 09:29:55 PM 39.4939 -106.0478 276° West 376 433 21,100 -1,073 Descending Denver Center
Fri 09:30:56 PM 39.5025 -106.1575 276° West 381 438 20,200 -1,220 Descending Denver Center
Fri 09:31:58 PM 39.5172 -106.3056 277° West 382 440 18,600 -1,306 Descending Denver Center
Fri 09:33:00 PM 39.5283 -106.4400 276° West 378 435 17,500 -1,258 Descending Denver Center
Fri 09:34:02 PM 39.5414 -106.5931 276° West 369 425 16,000 -829 Descending Denver Center
Fri 09:35:03 PM 39.5428 -106.7008 271° West 311 358 15,800 -585 Descending Denver Center
Fri 09:36:05 PM 39.5261 -106.7903 256° West 262 302 14,800 -1,016 Descending Denver Center
Fri 09:37:07 PM 39.5103 -106.8792 257° West 250 288 13,700 -537 Descending Denver Center
Fri 09:38:08 PM 39.4869 -106.9544 248° West 226 260 13,700 -146 Level Denver Center
Fri 09:39:10 PM 39.4319 -106.9692 192° South 178 205 13,400 -290 Descending Denver Center

Login

Don't have an account? Register now (free) for customized features, flight alerts, and more!